sensor_id;sensor_type;location;lat;lon;timestamp;P1;durP1;ratioP1;P2;durP2;ratioP2
11245;SDS011;59870;50.106;8.580;2022-09-09T00:14:21;1.53;;;1.43;;
11245;SDS011;59870;50.106;8.580;2022-09-09T00:20:09;4.73;;;1.90;;
11245;SDS011;59870;50.106;8.580;2022-09-09T00:22:57;1.87;;;1.30;;
11245;SDS011;59870;50.106;8.580;2022-09-09T00:49:08;2.20;;;1.57;;
11245;SDS011;59870;50.106;8.580;2022-09-09T00:55:35;2.13;;;1.67;;
11245;SDS011;59870;50.106;8.580;2022-09-09T00:58:16;1.83;;;1.60;;
11245;SDS011;59870;50.106;8.580;2022-09-09T01:13:28;2.70;;;1.30;;
11245;SDS011;59870;50.106;8.580;2022-09-09T01:41:15;2.80;;;2.07;;
11245;SDS011;59870;50.106;8.580;2022-09-09T01:50:15;1.70;;;1.60;;
11245;SDS011;59870;50.106;8.580;2022-09-09T01:52:45;1.80;;;1.70;;
11245;SDS011;59870;50.106;8.580;2022-09-09T01:55:23;5.03;;;1.90;;
11245;SDS011;59870;50.106;8.580;2022-09-09T02:03:47;2.27;;;2.07;;
11245;SDS011;59870;50.106;8.580;2022-09-09T02:15:39;2.63;;;1.80;;
11245;SDS011;59870;50.106;8.580;2022-09-09T02:18:26;2.03;;;1.93;;
11245;SDS011;59870;50.106;8.580;2022-09-09T02:21:06;3.00;;;1.80;;
11245;SDS011;59870;50.106;8.580;2022-09-09T02:45:53;2.60;;;1.97;;
11245;SDS011;59870;50.106;8.580;2022-09-09T02:52:06;2.73;;;1.83;;
11245;SDS011;59870;50.106;8.580;2022-09-09T03:37:22;2.33;;;2.07;;
11245;SDS011;59870;50.106;8.580;2022-09-09T03:42:48;3.03;;;2.07;;
11245;SDS011;59870;50.106;8.580;2022-09-09T03:45:18;4.20;;;2.00;;
11245;SDS011;59870;50.106;8.580;2022-09-09T04:17:18;2.90;;;1.93;;
11245;SDS011;59870;50.106;8.580;2022-09-09T04:19:53;5.27;;;2.20;;
11245;SDS011;59870;50.106;8.580;2022-09-09T04:22:28;4.20;;;2.43;;
11245;SDS011;59870;50.106;8.580;2022-09-09T04:25:14;3.30;;;2.10;;
11245;SDS011;59870;50.106;8.580;2022-09-09T04:27:46;2.00;;;1.80;;
11245;SDS011;59870;50.106;8.580;2022-09-09T04:30:16;4.20;;;2.30;;
11245;SDS011;59870;50.106;8.580;2022-09-09T04:32:46;3.40;;;2.50;;
11245;SDS011;59870;50.106;8.580;2022-09-09T04:35:16;3.60;;;2.70;;
11245;SDS011;59870;50.106;8.580;2022-09-09T05:03:45;2.60;;;2.33;;
11245;SDS011;59870;50.106;8.580;2022-09-09T05:06:17;7.33;;;3.00;;
11245;SDS011;59870;50.106;8.580;2022-09-09T05:08:49;3.43;;;2.60;;
11245;SDS011;59870;50.106;8.580;2022-09-09T05:11:23;3.90;;;2.57;;
11245;SDS011;59870;50.106;8.580;2022-09-09T05:13:59;3.87;;;2.50;;
11245;SDS011;59870;50.106;8.580;2022-09-09T05:16:29;4.57;;;2.50;;
11245;SDS011;59870;50.106;8.580;2022-09-09T05:18:57;2.40;;;2.20;;
11245;SDS011;59870;50.106;8.580;2022-09-09T05:25:53;6.17;;;3.07;;
11245;SDS011;59870;50.106;8.580;2022-09-09T05:28:26;5.50;;;2.60;;
11245;SDS011;59870;50.106;8.580;2022-09-09T05:30:58;2.67;;;2.23;;
11245;SDS011;59870;50.106;8.580;2022-09-09T05:33:38;3.80;;;2.47;;
11245;SDS011;59870;50.106;8.580;2022-09-09T05:36:15;3.33;;;2.53;;
11245;SDS011;59870;50.106;8.580;2022-09-09T05:49:10;2.97;;;2.63;;
11245;SDS011;59870;50.106;8.580;2022-09-09T05:51:41;8.70;;;2.53;;
11245;SDS011;59870;50.106;8.580;2022-09-09T06:03:38;3.37;;;2.60;;
11245;SDS011;59870;50.106;8.580;2022-09-09T06:36:30;2.00;;;1.83;;
11245;SDS011;59870;50.106;8.580;2022-09-09T06:39:00;1.60;;;1.50;;
11245;SDS011;59870;50.106;8.580;2022-09-09T06:41:31;2.00;;;1.70;;
11245;SDS011;59870;50.106;8.580;2022-09-09T06:44:02;7.23;;;2.07;;
11245;SDS011;59870;50.106;8.580;2022-09-09T06:46:40;3.30;;;2.30;;
11245;SDS011;59870;50.106;8.580;2022-09-09T06:49:13;3.20;;;2.17;;
11245;SDS011;59870;50.106;8.580;2022-09-09T06:51:41;2.93;;;1.90;;
11245;SDS011;59870;50.106;8.580;2022-09-09T06:54:13;4.37;;;1.90;;
11245;SDS011;59870;50.106;8.580;2022-09-09T06:56:44;3.47;;;1.87;;
11245;SDS011;59870;50.106;8.580;2022-09-09T06:59:20;2.50;;;1.90;;
11245;SDS011;59870;50.106;8.580;2022-09-09T07:01:48;3.47;;;1.60;;
11245;SDS011;59870;50.106;8.580;2022-09-09T07:04:22;1.70;;;1.60;;
11245;SDS011;59870;50.106;8.580;2022-09-09T07:06:50;2.03;;;1.83;;
11245;SDS011;59870;50.106;8.580;2022-09-09T07:09:25;2.40;;;1.70;;
11245;SDS011;59870;50.106;8.580;2022-09-09T07:11:54;2.70;;;1.80;;
11245;SDS011;59870;50.106;8.580;2022-09-09T07:14:23;2.77;;;2.00;;
11245;SDS011;59870;50.106;8.580;2022-09-09T07:16:57;2.63;;;1.77;;
11245;SDS011;59870;50.106;8.580;2022-09-09T07:19:28;4.03;;;2.20;;
11245;SDS011;59870;50.106;8.580;2022-09-09T07:21:56;2.73;;;2.10;;
11245;SDS011;59870;50.106;8.580;2022-09-09T07:24:24;6.40;;;1.90;;
11245;SDS011;59870;50.106;8.580;2022-09-09T07:26:52;4.43;;;1.60;;
11245;SDS011;59870;50.106;8.580;2022-09-09T07:29:20;3.33;;;2.53;;
11245;SDS011;59870;50.106;8.580;2022-09-09T07:31:49;3.20;;;2.20;;
11245;SDS011;59870;50.106;8.580;2022-09-09T07:34:22;4.90;;;1.90;;
11245;SDS011;59870;50.106;8.580;2022-09-09T07:36:51;2.63;;;1.77;;
11245;SDS011;59870;50.106;8.580;2022-09-09T07:39:19;2.60;;;1.83;;
11245;SDS011;59870;50.106;8.580;2022-09-09T07:41:50;2.03;;;1.57;;
11245;SDS011;59870;50.106;8.580;2022-09-09T07:44:21;2.73;;;1.60;;
11245;SDS011;59870;50.106;8.580;2022-09-09T07:46:58;3.90;;;1.90;;
11245;SDS011;59870;50.106;8.580;2022-09-09T07:49:32;2.40;;;1.87;;
11245;SDS011;59870;50.106;8.580;2022-09-09T07:52:03;2.30;;;1.70;;
11245;SDS011;59870;50.106;8.580;2022-09-09T07:54:31;4.50;;;2.10;;
11245;SDS011;59870;50.106;8.580;2022-09-09T07:57:00;4.57;;;1.90;;
11245;SDS011;59870;50.106;8.580;2022-09-09T07:59:31;4.00;;;2.50;;
11245;SDS011;59870;50.106;8.580;2022-09-09T08:02:01;2.13;;;1.93;;
11245;SDS011;59870;50.106;8.580;2022-09-09T08:04:31;3.10;;;2.13;;
11245;SDS011;59870;50.106;8.580;2022-09-09T08:07:00;2.43;;;1.80;;
11245;SDS011;59870;50.106;8.580;2022-09-09T08:09:34;1.90;;;1.80;;
11245;SDS011;59870;50.106;8.580;2022-09-09T08:12:07;4.97;;;2.53;;
11245;SDS011;59870;50.106;8.580;2022-09-09T08:14:35;5.93;;;2.20;;
11245;SDS011;59870;50.106;8.580;2022-09-09T08:17:03;5.83;;;2.20;;
11245;SDS011;59870;50.106;8.580;2022-09-09T08:19:32;2.60;;;2.20;;
11245;SDS011;59870;50.106;8.580;2022-09-09T08:22:07;5.13;;;2.23;;
11245;SDS011;59870;50.106;8.580;2022-09-09T08:24:37;3.13;;;1.80;;
11245;SDS011;59870;50.106;8.580;2022-09-09T08:27:04;4.30;;;1.60;;
11245;SDS011;59870;50.106;8.580;2022-09-09T08:29:32;4.20;;;2.23;;
11245;SDS011;59870;50.106;8.580;2022-09-09T08:31:59;3.77;;;2.00;;
11245;SDS011;59870;50.106;8.580;2022-09-09T08:34:28;6.27;;;2.77;;
11245;SDS011;59870;50.106;8.580;2022-09-09T08:37:00;4.40;;;2.10;;
11245;SDS011;59870;50.106;8.580;2022-09-09T08:39:34;4.23;;;2.13;;
11245;SDS011;59870;50.106;8.580;2022-09-09T08:42:13;3.40;;;2.30;;
11245;SDS011;59870;50.106;8.580;2022-09-09T08:51:15;5.03;;;1.97;;
11245;SDS011;59870;50.106;8.580;2022-09-09T08:53:46;5.77;;;2.67;;
11245;SDS011;59870;50.106;8.580;2022-09-09T08:56:18;3.73;;;2.20;;
11245;SDS011;59870;50.106;8.580;2022-09-09T08:58:53;2.37;;;1.80;;
11245;SDS011;59870;50.106;8.580;2022-09-09T09:01:43;4.27;;;2.03;;
11245;SDS011;59870;50.106;8.580;2022-09-09T09:07:15;4.27;;;2.23;;
11245;SDS011;59870;50.106;8.580;2022-09-09T09:13:10;3.13;;;2.33;;
11245;SDS011;59870;50.106;8.580;2022-09-09T09:15:41;3.63;;;2.50;;
11245;SDS011;59870;50.106;8.580;2022-09-09T09:18:11;3.03;;;1.83;;
11245;SDS011;59870;50.106;8.580;2022-09-09T09:23:42;2.60;;;1.80;;
11245;SDS011;59870;50.106;8.580;2022-09-09T09:26:30;4.57;;;1.87;;
11245;SDS011;59870;50.106;8.580;2022-09-09T09:29:00;2.57;;;1.67;;
11245;SDS011;59870;50.106;8.580;2022-09-09T09:31:47;3.67;;;1.97;;
11245;SDS011;59870;50.106;8.580;2022-09-09T09:34:19;2.83;;;2.20;;
11245;SDS011;59870;50.106;8.580;2022-09-09T09:36:54;8.53;;;2.50;;
11245;SDS011;59870;50.106;8.580;2022-09-09T09:39:25;5.27;;;2.23;;
11245;SDS011;59870;50.106;8.580;2022-09-09T09:42:15;5.13;;;2.47;;
11245;SDS011;59870;50.106;8.580;2022-09-09T09:44:49;4.03;;;1.80;;
11245;SDS011;59870;50.106;8.580;2022-09-09T09:47:20;4.30;;;1.93;;
11245;SDS011;59870;50.106;8.580;2022-09-09T09:50:19;2.93;;;1.70;;
11245;SDS011;59870;50.106;8.580;2022-09-09T09:52:56;5.37;;;2.37;;
11245;SDS011;59870;50.106;8.580;2022-09-09T09:55:28;3.27;;;2.07;;
11245;SDS011;59870;50.106;8.580;2022-09-09T09:58:05;6.03;;;2.13;;
11245;SDS011;59870;50.106;8.580;2022-09-09T10:00:35;2.93;;;2.10;;
11245;SDS011;59870;50.106;8.580;2022-09-09T10:03:22;4.23;;;2.63;;
11245;SDS011;59870;50.106;8.580;2022-09-09T10:05:58;5.87;;;2.30;;
11245;SDS011;59870;50.106;8.580;2022-09-09T10:08:26;5.50;;;2.60;;
11245;SDS011;59870;50.106;8.580;2022-09-09T10:16:25;3.47;;;2.23;;
11245;SDS011;59870;50.106;8.580;2022-09-09T10:19:15;7.80;;;2.37;;
11245;SDS011;59870;50.106;8.580;2022-09-09T10:27:36;7.33;;;2.27;;
11245;SDS011;59870;50.106;8.580;2022-09-09T10:38:36;4.87;;;2.37;;
11245;SDS011;59870;50.106;8.580;2022-09-09T10:41:15;5.43;;;2.23;;
11245;SDS011;59870;50.106;8.580;2022-09-09T10:43:52;7.20;;;2.43;;
11245;SDS011;59870;50.106;8.580;2022-09-09T10:46:46;3.83;;;2.20;;
11245;SDS011;59870;50.106;8.580;2022-09-09T10:52:37;4.40;;;2.30;;
11245;SDS011;59870;50.106;8.580;2022-09-09T10:55:33;6.90;;;2.30;;
11245;SDS011;59870;50.106;8.580;2022-09-09T10:58:10;3.43;;;2.30;;
11245;SDS011;59870;50.106;8.580;2022-09-09T11:00:42;6.20;;;2.93;;
11245;SDS011;59870;50.106;8.580;2022-09-09T11:03:25;4.20;;;2.60;;
11245;SDS011;59870;50.106;8.580;2022-09-09T11:06:04;5.43;;;2.50;;
11245;SDS011;59870;50.106;8.580;2022-09-09T11:08:34;4.03;;;2.57;;
11245;SDS011;59870;50.106;8.580;2022-09-09T11:11:13;10.20;;;2.30;;
11245;SDS011;59870;50.106;8.580;2022-09-09T11:13:59;2.53;;;2.00;;
11245;SDS011;59870;50.106;8.580;2022-09-09T11:16:49;1.80;;;1.70;;
11245;SDS011;59870;50.106;8.580;2022-09-09T11:19:26;4.20;;;2.13;;
11245;SDS011;59870;50.106;8.580;2022-09-09T11:21:58;2.57;;;1.80;;
11245;SDS011;59870;50.106;8.580;2022-09-09T11:24:59;2.43;;;1.70;;
11245;SDS011;59870;50.106;8.580;2022-09-09T11:30:48;2.67;;;2.07;;
11245;SDS011;59870;50.106;8.580;2022-09-09T11:44:39;3.50;;;2.00;;
11245;SDS011;59870;50.106;8.580;2022-09-09T11:47:25;1.50;;;1.40;;
11245;SDS011;59870;50.106;8.580;2022-09-09T11:50:09;4.67;;;2.30;;
11245;SDS011;59870;50.106;8.580;2022-09-09T11:56:08;5.50;;;2.00;;
11245;SDS011;59870;50.106;8.580;2022-09-09T11:58:39;2.27;;;1.70;;
11245;SDS011;59870;50.106;8.580;2022-09-09T12:01:13;2.67;;;2.00;;
11245;SDS011;59870;50.106;8.580;2022-09-09T12:04:05;7.13;;;2.60;;
11245;SDS011;59870;50.106;8.580;2022-09-09T12:06:53;2.37;;;2.17;;
11245;SDS011;59870;50.106;8.580;2022-09-09T12:09:29;2.57;;;2.00;;
11245;SDS011;59870;50.106;8.580;2022-09-09T12:19:42;2.87;;;1.60;;
11245;SDS011;59870;50.106;8.580;2022-09-09T12:25:23;1.77;;;1.67;;
11245;SDS011;59870;50.106;8.580;2022-09-09T12:28:09;3.33;;;1.70;;
11245;SDS011;59870;50.106;8.580;2022-09-09T12:33:20;2.90;;;1.80;;
11245;SDS011;59870;50.106;8.580;2022-09-09T12:35:53;3.70;;;1.83;;
11245;SDS011;59870;50.106;8.580;2022-09-09T12:38:34;2.13;;;1.83;;
11245;SDS011;59870;50.106;8.580;2022-09-09T12:41:03;2.10;;;1.90;;
11245;SDS011;59870;50.106;8.580;2022-09-09T12:43:32;5.67;;;1.97;;
11245;SDS011;59870;50.106;8.580;2022-09-09T12:46:00;9.53;;;2.00;;
11245;SDS011;59870;50.106;8.580;2022-09-09T12:48:38;3.70;;;1.87;;
11245;SDS011;59870;50.106;8.580;2022-09-09T12:51:19;3.77;;;1.70;;
11245;SDS011;59870;50.106;8.580;2022-09-09T12:53:51;2.37;;;1.70;;
11245;SDS011;59870;50.106;8.580;2022-09-09T12:56:20;3.17;;;2.00;;
11245;SDS011;59870;50.106;8.580;2022-09-09T12:58:50;4.37;;;1.80;;
11245;SDS011;59870;50.106;8.580;2022-09-09T13:01:29;3.20;;;1.93;;
11245;SDS011;59870;50.106;8.580;2022-09-09T13:04:00;2.40;;;1.90;;
11245;SDS011;59870;50.106;8.580;2022-09-09T13:06:29;2.60;;;1.97;;
11245;SDS011;59870;50.106;8.580;2022-09-09T13:08:59;2.97;;;2.00;;
11245;SDS011;59870;50.106;8.580;2022-09-09T13:11:30;3.53;;;2.57;;
11245;SDS011;59870;50.106;8.580;2022-09-09T13:14:04;2.00;;;1.70;;
11245;SDS011;59870;50.106;8.580;2022-09-09T13:16:34;4.97;;;2.10;;
11245;SDS011;59870;50.106;8.580;2022-09-09T13:19:09;4.03;;;1.90;;
11245;SDS011;59870;50.106;8.580;2022-09-09T13:21:41;2.13;;;1.63;;
11245;SDS011;59870;50.106;8.580;2022-09-09T13:26:55;4.17;;;2.17;;
11245;SDS011;59870;50.106;8.580;2022-09-09T13:29:24;4.47;;;1.70;;
11245;SDS011;59870;50.106;8.580;2022-09-09T13:31:51;2.40;;;1.63;;
11245;SDS011;59870;50.106;8.580;2022-09-09T13:34:28;3.80;;;1.70;;
11245;SDS011;59870;50.106;8.580;2022-09-09T13:37:00;2.20;;;1.20;;
11245;SDS011;59870;50.106;8.580;2022-09-09T13:39:33;2.20;;;1.70;;
11245;SDS011;59870;50.106;8.580;2022-09-09T13:42:03;2.60;;;1.50;;
11245;SDS011;59870;50.106;8.580;2022-09-09T13:44:35;1.83;;;1.60;;
11245;SDS011;59870;50.106;8.580;2022-09-09T13:47:06;2.10;;;1.77;;
11245;SDS011;59870;50.106;8.580;2022-09-09T13:49:47;1.57;;;1.47;;
11245;SDS011;59870;50.106;8.580;2022-09-09T13:52:16;1.30;;;1.20;;
11245;SDS011;59870;50.106;8.580;2022-09-09T13:54:49;1.23;;;1.20;;
11245;SDS011;59870;50.106;8.580;2022-09-09T13:57:22;1.53;;;1.43;;
11245;SDS011;59870;50.106;8.580;2022-09-09T13:59:52;1.20;;;1.10;;
11245;SDS011;59870;50.106;8.580;2022-09-09T14:02:37;1.23;;;1.23;;
11245;SDS011;59870;50.106;8.580;2022-09-09T14:05:05;3.60;;;1.50;;
11245;SDS011;59870;50.106;8.580;2022-09-09T14:07:33;0.90;;;0.90;;
11245;SDS011;59870;50.106;8.580;2022-09-09T14:10:00;4.47;;;1.00;;
11245;SDS011;59870;50.106;8.580;2022-09-09T14:12:29;2.00;;;1.00;;
11245;SDS011;59870;50.106;8.580;2022-09-09T14:14:56;3.17;;;1.07;;
11245;SDS011;59870;50.106;8.580;2022-09-09T14:17:24;1.37;;;1.27;;
11245;SDS011;59870;50.106;8.580;2022-09-09T14:19:52;0.90;;;0.90;;
11245;SDS011;59870;50.106;8.580;2022-09-09T14:22:19;1.43;;;0.93;;
11245;SDS011;59870;50.106;8.580;2022-09-09T14:24:47;1.27;;;1.17;;
11245;SDS011;59870;50.106;8.580;2022-09-09T14:27:14;1.43;;;1.30;;
11245;SDS011;59870;50.106;8.580;2022-09-09T14:29:42;3.00;;;1.30;;
11245;SDS011;59870;50.106;8.580;2022-09-09T14:32:11;4.97;;;1.80;;
11245;SDS011;59870;50.106;8.580;2022-09-09T14:34:39;2.50;;;1.47;;
11245;SDS011;59870;50.106;8.580;2022-09-09T14:37:07;1.63;;;1.37;;
11245;SDS011;59870;50.106;8.580;2022-09-09T14:39:34;2.63;;;1.40;;
11245;SDS011;59870;50.106;8.580;2022-09-09T14:42:02;2.43;;;1.53;;
11245;SDS011;59870;50.106;8.580;2022-09-09T14:44:29;1.60;;;1.50;;
11245;SDS011;59870;50.106;8.580;2022-09-09T14:46:56;1.57;;;1.47;;
11245;SDS011;59870;50.106;8.580;2022-09-09T14:49:25;2.17;;;1.80;;
11245;SDS011;59870;50.106;8.580;2022-09-09T14:51:52;3.80;;;1.70;;
11245;SDS011;59870;50.106;8.580;2022-09-09T14:54:20;1.73;;;1.60;;
11245;SDS011;59870;50.106;8.580;2022-09-09T14:56:49;2.40;;;1.60;;
11245;SDS011;59870;50.106;8.580;2022-09-09T14:59:17;1.73;;;1.40;;
11245;SDS011;59870;50.106;8.580;2022-09-09T15:01:44;2.63;;;1.73;;
11245;SDS011;59870;50.106;8.580;2022-09-09T15:04:12;4.70;;;1.47;;
11245;SDS011;59870;50.106;8.580;2022-09-09T15:06:41;4.87;;;3.80;;
11245;SDS011;59870;50.106;8.580;2022-09-09T15:09:10;2.57;;;1.70;;
11245;SDS011;59870;50.106;8.580;2022-09-09T15:11:38;2.50;;;1.97;;
11245;SDS011;59870;50.106;8.580;2022-09-09T15:14:06;3.47;;;3.13;;
11245;SDS011;59870;50.106;8.580;2022-09-09T15:16:35;3.07;;;2.77;;
11245;SDS011;59870;50.106;8.580;2022-09-09T15:19:02;6.80;;;2.13;;
11245;SDS011;59870;50.106;8.580;2022-09-09T15:21:31;3.30;;;3.00;;
11245;SDS011;59870;50.106;8.580;2022-09-09T15:24:00;2.23;;;2.03;;
11245;SDS011;59870;50.106;8.580;2022-09-09T15:26:27;2.47;;;1.50;;
11245;SDS011;59870;50.106;8.580;2022-09-09T15:28:56;1.43;;;1.33;;
11245;SDS011;59870;50.106;8.580;2022-09-09T15:31:29;2.17;;;1.67;;
11245;SDS011;59870;50.106;8.580;2022-09-09T15:33:59;3.43;;;1.70;;
11245;SDS011;59870;50.106;8.580;2022-09-09T15:36:29;2.00;;;1.83;;
11245;SDS011;59870;50.106;8.580;2022-09-09T15:38:59;1.63;;;1.53;;
11245;SDS011;59870;50.106;8.580;2022-09-09T15:41:27;1.63;;;1.43;;
11245;SDS011;59870;50.106;8.580;2022-09-09T15:43:56;2.27;;;1.80;;
11245;SDS011;59870;50.106;8.580;2022-09-09T15:46:25;1.23;;;0.90;;
11245;SDS011;59870;50.106;8.580;2022-09-09T15:49:08;2.33;;;1.40;;
11245;SDS011;59870;50.106;8.580;2022-09-09T15:51:47;3.47;;;1.70;;
11245;SDS011;59870;50.106;8.580;2022-09-09T15:54:34;1.90;;;1.70;;
11245;SDS011;59870;50.106;8.580;2022-09-09T15:57:06;1.70;;;1.60;;
11245;SDS011;59870;50.106;8.580;2022-09-09T15:59:35;1.80;;;1.40;;
11245;SDS011;59870;50.106;8.580;2022-09-09T16:02:02;1.50;;;1.07;;
11245;SDS011;59870;50.106;8.580;2022-09-09T16:04:31;1.70;;;1.60;;
11245;SDS011;59870;50.106;8.580;2022-09-09T16:07:03;1.03;;;1.00;;
11245;SDS011;59870;50.106;8.580;2022-09-09T16:09:32;1.20;;;1.10;;
11245;SDS011;59870;50.106;8.580;2022-09-09T16:12:00;5.07;;;1.60;;
11245;SDS011;59870;50.106;8.580;2022-09-09T16:14:29;3.37;;;1.80;;
11245;SDS011;59870;50.106;8.580;2022-09-09T16:17:01;1.20;;;1.20;;
11245;SDS011;59870;50.106;8.580;2022-09-09T16:19:29;1.50;;;1.40;;
11245;SDS011;59870;50.106;8.580;2022-09-09T16:21:56;1.77;;;1.40;;
11245;SDS011;59870;50.106;8.580;2022-09-09T16:24:24;2.50;;;1.70;;
11245;SDS011;59870;50.106;8.580;2022-09-09T16:26:53;1.50;;;1.10;;
11245;SDS011;59870;50.106;8.580;2022-09-09T16:29:21;3.53;;;1.40;;
11245;SDS011;59870;50.106;8.580;2022-09-09T16:31:50;1.60;;;1.50;;
11245;SDS011;59870;50.106;8.580;2022-09-09T16:34:18;3.43;;;1.60;;
11245;SDS011;59870;50.106;8.580;2022-09-09T16:36:47;2.07;;;1.70;;
11245;SDS011;59870;50.106;8.580;2022-09-09T16:39:17;1.60;;;1.50;;
11245;SDS011;59870;50.106;8.580;2022-09-09T16:41:46;2.30;;;1.23;;
11245;SDS011;59870;50.106;8.580;2022-09-09T16:44:15;1.67;;;1.57;;
11245;SDS011;59870;50.106;8.580;2022-09-09T16:46:45;1.43;;;1.20;;
11245;SDS011;59870;50.106;8.580;2022-09-09T16:49:15;1.83;;;1.60;;
11245;SDS011;59870;50.106;8.580;2022-09-09T16:51:44;1.47;;;1.30;;
11245;SDS011;59870;50.106;8.580;2022-09-09T16:54:14;1.43;;;1.33;;
11245;SDS011;59870;50.106;8.580;2022-09-09T16:56:43;1.70;;;1.50;;
11245;SDS011;59870;50.106;8.580;2022-09-09T16:59:22;1.60;;;1.50;;
11245;SDS011;59870;50.106;8.580;2022-09-09T17:01:50;2.53;;;1.53;;
11245;SDS011;59870;50.106;8.580;2022-09-09T17:04:20;1.50;;;1.40;;
11245;SDS011;59870;50.106;8.580;2022-09-09T17:06:51;1.63;;;1.53;;
11245;SDS011;59870;50.106;8.580;2022-09-09T17:09:20;2.03;;;1.63;;
11245;SDS011;59870;50.106;8.580;2022-09-09T17:11:49;1.63;;;1.53;;
11245;SDS011;59870;50.106;8.580;2022-09-09T17:14:18;1.80;;;1.70;;
11245;SDS011;59870;50.106;8.580;2022-09-09T17:16:47;1.93;;;1.70;;
11245;SDS011;59870;50.106;8.580;2022-09-09T17:19:14;1.60;;;1.50;;
11245;SDS011;59870;50.106;8.580;2022-09-09T17:21:42;1.83;;;1.43;;
11245;SDS011;59870;50.106;8.580;2022-09-09T17:24:29;3.10;;;1.70;;
11245;SDS011;59870;50.106;8.580;2022-09-09T17:26:57;2.90;;;1.70;;
11245;SDS011;59870;50.106;8.580;2022-09-09T17:29:25;1.80;;;1.70;;
11245;SDS011;59870;50.106;8.580;2022-09-09T17:31:52;2.43;;;2.23;;
11245;SDS011;59870;50.106;8.580;2022-09-09T17:34:21;1.77;;;1.67;;
11245;SDS011;59870;50.106;8.580;2022-09-09T17:36:49;2.00;;;1.77;;
11245;SDS011;59870;50.106;8.580;2022-09-09T17:39:17;3.00;;;1.90;;
11245;SDS011;59870;50.106;8.580;2022-09-09T17:41:44;2.63;;;1.73;;
11245;SDS011;59870;50.106;8.580;2022-09-09T17:44:12;2.10;;;1.83;;
11245;SDS011;59870;50.106;8.580;2022-09-09T17:46:40;2.73;;;1.53;;
11245;SDS011;59870;50.106;8.580;2022-09-09T17:49:13;1.63;;;1.53;;
11245;SDS011;59870;50.106;8.580;2022-09-09T17:51:42;2.30;;;1.27;;
11245;SDS011;59870;50.106;8.580;2022-09-09T17:54:12;1.90;;;1.53;;
11245;SDS011;59870;50.106;8.580;2022-09-09T17:56:41;1.10;;;1.10;;
11245;SDS011;59870;50.106;8.580;2022-09-09T17:59:10;1.50;;;1.40;;
11245;SDS011;59870;50.106;8.580;2022-09-09T18:01:40;1.63;;;1.43;;
11245;SDS011;59870;50.106;8.580;2022-09-09T18:04:10;1.60;;;1.50;;
11245;SDS011;59870;50.106;8.580;2022-09-09T18:06:40;2.47;;;1.50;;
11245;SDS011;59870;50.106;8.580;2022-09-09T18:09:13;1.87;;;1.23;;
11245;SDS011;59870;50.106;8.580;2022-09-09T18:11:43;1.70;;;1.60;;
11245;SDS011;59870;50.106;8.580;2022-09-09T18:14:14;1.40;;;1.30;;
11245;SDS011;59870;50.106;8.580;2022-09-09T18:16:46;2.17;;;1.97;;
11245;SDS011;59870;50.106;8.580;2022-09-09T18:19:17;1.40;;;1.30;;
11245;SDS011;59870;50.106;8.580;2022-09-09T18:21:46;2.53;;;1.43;;
11245;SDS011;59870;50.106;8.580;2022-09-09T18:24:14;1.77;;;1.33;;
11245;SDS011;59870;50.106;8.580;2022-09-09T18:26:43;1.70;;;1.40;;
11245;SDS011;59870;50.106;8.580;2022-09-09T18:29:12;3.83;;;1.57;;
11245;SDS011;59870;50.106;8.580;2022-09-09T18:31:41;1.70;;;1.60;;
11245;SDS011;59870;50.106;8.580;2022-09-09T18:34:09;1.87;;;1.77;;
11245;SDS011;59870;50.106;8.580;2022-09-09T18:39:11;5.17;;;1.60;;
11245;SDS011;59870;50.106;8.580;2022-09-09T18:41:44;5.93;;;2.17;;
11245;SDS011;59870;50.106;8.580;2022-09-09T18:44:19;4.20;;;1.80;;
11245;SDS011;59870;50.106;8.580;2022-09-09T18:46:48;2.43;;;2.20;;
11245;SDS011;59870;50.106;8.580;2022-09-09T18:49:18;2.43;;;1.47;;
11245;SDS011;59870;50.106;8.580;2022-09-09T18:51:47;1.40;;;1.27;;
11245;SDS011;59870;50.106;8.580;2022-09-09T18:54:19;1.60;;;1.50;;
11245;SDS011;59870;50.106;8.580;2022-09-09T18:56:48;3.53;;;1.80;;
11245;SDS011;59870;50.106;8.580;2022-09-09T18:59:16;2.30;;;1.73;;
11245;SDS011;59870;50.106;8.580;2022-09-09T19:01:49;2.60;;;1.70;;
11245;SDS011;59870;50.106;8.580;2022-09-09T19:04:35;1.90;;;1.43;;
11245;SDS011;59870;50.106;8.580;2022-09-09T19:07:03;3.77;;;1.63;;
11245;SDS011;59870;50.106;8.580;2022-09-09T19:09:31;2.10;;;1.50;;
11245;SDS011;59870;50.106;8.580;2022-09-09T19:12:00;1.23;;;1.17;;
11245;SDS011;59870;50.106;8.580;2022-09-09T19:14:28;1.43;;;1.30;;
11245;SDS011;59870;50.106;8.580;2022-09-09T19:16:56;1.37;;;1.30;;
11245;SDS011;59870;50.106;8.580;2022-09-09T19:19:25;1.50;;;1.43;;
11245;SDS011;59870;50.106;8.580;2022-09-09T19:21:54;2.73;;;1.87;;
11245;SDS011;59870;50.106;8.580;2022-09-09T19:24:25;3.07;;;1.40;;
11245;SDS011;59870;50.106;8.580;2022-09-09T19:26:58;1.60;;;1.50;;
11245;SDS011;59870;50.106;8.580;2022-09-09T19:29:29;3.93;;;1.27;;
11245;SDS011;59870;50.106;8.580;2022-09-09T19:31:58;1.47;;;1.37;;
11245;SDS011;59870;50.106;8.580;2022-09-09T19:34:48;2.70;;;1.70;;
11245;SDS011;59870;50.106;8.580;2022-09-09T19:37:18;2.50;;;1.60;;
11245;SDS011;59870;50.106;8.580;2022-09-09T19:39:58;1.97;;;1.40;;
11245;SDS011;59870;50.106;8.580;2022-09-09T19:43:08;2.10;;;1.43;;
11245;SDS011;59870;50.106;8.580;2022-09-09T19:50:16;1.70;;;1.30;;
11245;SDS011;59870;50.106;8.580;2022-09-09T19:52:45;1.30;;;1.30;;
11245;SDS011;59870;50.106;8.580;2022-09-09T19:55:12;3.37;;;1.70;;
11245;SDS011;59870;50.106;8.580;2022-09-09T19:57:40;1.30;;;1.20;;
11245;SDS011;59870;50.106;8.580;2022-09-09T20:00:28;3.70;;;1.43;;
11245;SDS011;59870;50.106;8.580;2022-09-09T20:03:12;2.07;;;1.50;;
11245;SDS011;59870;50.106;8.580;2022-09-09T20:05:45;2.20;;;1.50;;
11245;SDS011;59870;50.106;8.580;2022-09-09T20:08:15;1.10;;;1.00;;
11245;SDS011;59870;50.106;8.580;2022-09-09T20:10:49;1.93;;;1.50;;
11245;SDS011;59870;50.106;8.580;2022-09-09T20:13:17;1.63;;;1.53;;
11245;SDS011;59870;50.106;8.580;2022-09-09T20:16:01;3.70;;;1.90;;
11245;SDS011;59870;50.106;8.580;2022-09-09T20:18:31;1.63;;;1.53;;
11245;SDS011;59870;50.106;8.580;2022-09-09T20:21:11;2.30;;;1.80;;
11245;SDS011;59870;50.106;8.580;2022-09-09T20:24:42;2.17;;;1.97;;
11245;SDS011;59870;50.106;8.580;2022-09-09T20:27:34;6.07;;;5.57;;
11245;SDS011;59870;50.106;8.580;2022-09-09T20:30:12;4.70;;;4.30;;
11245;SDS011;59870;50.106;8.580;2022-09-09T20:33:03;2.43;;;2.33;;
11245;SDS011;59870;50.106;8.580;2022-09-09T20:45:03;1.43;;;1.33;;
11245;SDS011;59870;50.106;8.580;2022-09-09T20:48:47;1.30;;;1.20;;
11245;SDS011;59870;50.106;8.580;2022-09-09T20:52:09;1.33;;;1.13;;
11245;SDS011;59870;50.106;8.580;2022-09-09T20:55:10;1.77;;;1.30;;
11245;SDS011;59870;50.106;8.580;2022-09-09T20:58:54;2.13;;;1.27;;
11245;SDS011;59870;50.106;8.580;2022-09-09T21:06:47;1.83;;;1.73;;
11245;SDS011;59870;50.106;8.580;2022-09-09T21:09:38;1.67;;;1.57;;
11245;SDS011;59870;50.106;8.580;2022-09-09T21:13:00;1.80;;;1.70;;
11245;SDS011;59870;50.106;8.580;2022-09-09T21:15:59;1.80;;;1.70;;
11245;SDS011;59870;50.106;8.580;2022-09-09T21:18:33;1.70;;;1.60;;
11245;SDS011;59870;50.106;8.580;2022-09-09T21:22:19;1.83;;;1.73;;
11245;SDS011;59870;50.106;8.580;2022-09-09T21:29:18;2.87;;;2.67;;
11245;SDS011;59870;50.106;8.580;2022-09-09T21:36:15;2.90;;;2.40;;
11245;SDS011;59870;50.106;8.580;2022-09-09T21:39:51;1.97;;;1.87;;
11245;SDS011;59870;50.106;8.580;2022-09-09T21:45:43;1.40;;;1.40;;
11245;SDS011;59870;50.106;8.580;2022-09-09T21:48:32;2.77;;;1.40;;
11245;SDS011;59870;50.106;8.580;2022-09-09T21:51:46;1.37;;;1.37;;
11245;SDS011;59870;50.106;8.580;2022-09-09T21:54:30;1.80;;;1.70;;
11245;SDS011;59870;50.106;8.580;2022-09-09T22:13:19;4.70;;;3.10;;
11245;SDS011;59870;50.106;8.580;2022-09-09T22:15:52;4.73;;;2.73;;
11245;SDS011;59870;50.106;8.580;2022-09-09T22:21:52;2.37;;;2.10;;